Time;durP1;ratioP1;P1;durP2;ratioP2;P2;SDS_P1;SDS_P2;PMS_P1;PMS_P2;Temp;Humidity;BMP_temperature;BMP_pressure;BME280_temperature;BME280_humidity;BME280_pressure;Samples;Min_cycle;Max_cycle;Signal;HPM_P1;HPM_P2
2024/03/22 00:02:08;;;;;;;0.00;0.00;;;;;;;8.78;100.00;100963.47;6179447;23;20016;-73
2024/03/22 00:04:34;;;;;;;0.00;0.00;;;;;;;8.74;100.00;100956.84;6180620;23;20039;-73
2024/03/22 00:06:59;;;;;;;0.10;0.10;;;;;;;8.74;100.00;100946.75;6127572;23;20424;-76
2024/03/22 00:09:25;;;;;;;0.00;0.00;;;;;;;8.74;100.00;100940.50;6184945;23;20402;-74
2024/03/22 00:11:50;;;;;;;0.10;0.10;;;;;;;8.87;100.00;100953.84;6154750;23;20019;-75
2024/03/22 00:14:16;;;;;;;0.00;0.00;;;;;;;8.87;100.00;100940.22;6159221;23;20096;-76
2024/03/22 00:16:42;;;;;;;0.00;0.00;;;;;;;8.97;100.00;100949.69;6156094;23;20023;-74
2024/03/22 00:19:07;;;;;;;0.00;0.00;;;;;;;8.94;100.00;100945.53;6207864;23;20016;-74
2024/03/22 00:21:32;;;;;;;0.00;0.00;;;;;;;8.90;100.00;100937.00;6183118;23;20009;-74
2024/03/22 00:23:58;;;;;;;0.00;0.00;;;;;;;8.96;100.00;100939.84;6156400;23;20015;-76
2024/03/22 00:26:24;;;;;;;0.00;0.00;;;;;;;8.96;100.00;100937.94;6160336;23;20020;-76
2024/03/22 00:28:49;;;;;;;0.00;0.00;;;;;;;9.00;100.00;100939.09;6157187;23;20004;-76
2024/03/22 00:31:16;;;;;;;0.00;0.00;;;;;;;9.00;100.00;100927.38;6182304;23;20432;-76
2024/03/22 00:33:41;;;;;;;0.00;0.00;;;;;;;8.94;100.00;100917.44;6184208;23;20065;-75
2024/03/22 00:36:07;;;;;;;0.00;0.00;;;;;;;9.00;100.00;100919.19;6154444;23;20004;-74
2024/03/22 00:38:33;;;;;;;0.00;0.00;;;;;;;8.98;100.00;100918.59;6159805;23;20039;-75
2024/03/22 00:40:58;;;;;;;0.00;0.00;;;;;;;9.02;100.00;100911.56;6156579;23;20384;-75
2024/03/22 00:43:24;;;;;;;0.00;0.00;;;;;;;9.01;100.00;100918.09;6183671;23;20334;-75
2024/03/22 00:45:49;;;;;;;0.00;0.00;;;;;;;8.99;100.00;100898.44;6133326;23;20009;-76
2024/03/22 00:48:15;;;;;;;0.00;0.00;;;;;;;9.04;100.00;100917.63;6182358;23;20005;-77
2024/03/22 00:50:43;;;;;;;0.00;0.00;;;;;;;8.87;100.00;100893.84;6184586;23;20054;-77
2024/03/22 00:53:09;;;;;;;0.00;0.00;;;;;;;8.88;100.00;100881.88;6204292;23;20058;-76
2024/03/22 00:55:35;;;;;;;0.00;0.00;;;;;;;8.94;100.00;100898.34;6183602;23;20316;-77
2024/03/22 00:58:00;;;;;;;0.00;0.00;;;;;;;8.90;100.00;100890.63;6155036;23;20012;-74
2024/03/22 01:00:26;;;;;;;0.00;0.00;;;;;;;8.92;100.00;100898.56;6210216;23;20082;-74
2024/03/22 01:03:02;;;;;;;0.00;0.00;;;;;;;8.81;100.00;100881.19;6181790;23;20005;-75
2024/03/22 01:05:30;;;;;;;0.00;0.00;;;;;;;8.82;100.00;100880.13;6183855;23;20083;-75
2024/03/22 01:07:56;;;;;;;0.00;0.00;;;;;;;8.91;100.00;100892.28;6181360;23;20012;-75
2024/03/22 01:10:23;;;;;;;0.10;0.10;;;;;;;8.84;100.00;100880.69;6156933;23;20008;-75
2024/03/22 01:12:49;;;;;;;0.00;0.00;;;;;;;8.89;100.00;100897.19;6208604;23;20005;-75
2024/03/22 01:15:16;;;;;;;0.00;0.00;;;;;;;8.78;100.00;100887.13;6157314;23;20019;-75
2024/03/22 01:17:42;;;;;;;0.00;0.00;;;;;;;8.81;100.00;100889.38;6131840;23;20027;-75
2024/03/22 01:20:07;;;;;;;0.00;0.00;;;;;;;8.78;100.00;100887.13;6134788;23;20004;-75
2024/03/22 01:22:33;;;;;;;0.00;0.00;;;;;;;8.77;100.00;100880.00;6179324;23;20061;-75
2024/03/22 01:24:58;;;;;;;0.00;0.00;;;;;;;8.71;100.00;100860.00;6134964;23;20436;-75
2024/03/22 01:27:24;;;;;;;0.00;0.00;;;;;;;8.78;100.00;100859.88;6181093;23;20091;-74
2024/03/22 01:29:49;;;;;;;0.00;0.00;;;;;;;8.81;100.00;100859.38;6184674;23;20084;-75
2024/03/22 01:32:14;;;;;;;0.00;0.00;;;;;;;8.82;100.00;100855.59;6134889;23;20008;-74
2024/03/22 01:34:40;;;;;;;0.00;0.00;;;;;;;8.74;100.00;100847.78;6133894;23;20073;-75
2024/03/22 01:37:06;;;;;;;0.00;0.00;;;;;;;8.68;100.00;100843.31;6136511;23;20012;-76
2024/03/22 01:39:31;;;;;;;0.00;0.00;;;;;;;8.70;100.00;100852.91;6156576;23;20008;-75
2024/03/22 01:41:57;;;;;;;0.00;0.00;;;;;;;8.69;100.00;100847.69;6159673;23;20107;-76
2024/03/22 01:44:29;;;;;;;0.00;0.00;;;;;;;8.68;100.00;100854.22;6205479;23;20101;-76
2024/03/22 01:46:55;;;;;;;0.00;0.00;;;;;;;8.69;100.00;100847.69;6209412;23;20008;-76
2024/03/22 01:49:21;;;;;;;0.00;0.00;;;;;;;8.62;100.00;100838.84;6161359;23;20511;-75
2024/03/22 01:51:47;;;;;;;0.00;0.00;;;;;;;8.61;100.00;100832.53;6216970;23;20008;-76
2024/03/22 01:54:14;;;;;;;0.00;0.00;;;;;;;8.63;100.00;100830.41;6172075;23;20127;-74
2024/03/22 01:56:40;;;;;;;0.00;0.00;;;;;;;8.64;100.00;100823.03;6166345;22;20009;-75
2024/03/22 01:59:06;;;;;;;0.00;0.00;;;;;;;8.65;100.00;100832.88;6220348;23;20027;-76
2024/03/22 02:01:35;;;;;;;0.00;0.00;;;;;;;8.61;100.00;100816.19;6154284;23;20087;-76
2024/03/22 02:04:00;;;;;;;0.00;0.00;;;;;;;8.58;100.00;100810.41;6183669;23;19997;-75
2024/03/22 02:06:26;;;;;;;0.00;0.00;;;;;;;8.67;100.00;100822.56;6177652;23;20007;-77
2024/03/22 02:08:51;;;;;;;0.00;0.00;;;;;;;8.58;100.00;100794.84;6155858;23;20012;-76
2024/03/22 02:11:17;;;;;;;0.00;0.00;;;;;;;8.55;100.00;100793.44;6182291;23;20451;-77
2024/03/22 02:13:45;;;;;;;0.00;0.00;;;;;;;8.63;100.00;100802.31;6172959;23;19997;-76
2024/03/22 02:16:11;;;;;;;0.00;0.00;;;;;;;8.67;100.00;100803.47;6181833;23;20020;-77
2024/03/22 02:18:36;;;;;;;0.10;0.10;;;;;;;8.53;100.00;100787.41;6178605;23;20008;-77
2024/03/22 02:21:04;;;;;;;0.00;0.00;;;;;;;8.64;100.00;100823.03;6156938;23;20016;-76
2024/03/22 02:23:33;;;;;;;0.00;0.00;;;;;;;8.70;100.00;100830.25;6160023;23;20008;-78
2024/03/22 02:26:00;;;;;;;0.00;0.00;;;;;;;8.72;100.00;100817.22;6181142;23;20012;-77
2024/03/22 02:28:25;;;;;;;0.00;0.00;;;;;;;8.73;100.00;100821.56;6182782;23;20050;-76
2024/03/22 02:30:50;;;;;;;0.00;0.00;;;;;;;8.66;100.00;100815.44;6180594;23;20035;-76
2024/03/22 02:33:16;;;;;;;0.10;0.10;;;;;;;8.68;100.00;100819.59;6210729;23;20079;-75
2024/03/22 02:35:42;;;;;;;0.00;0.00;;;;;;;8.64;100.00;100807.50;6182772;23;20039;-77
2024/03/22 02:38:07;;;;;;;0.00;0.00;;;;;;;8.55;100.00;100773.53;6157965;23;20009;-78
2024/03/22 02:40:33;;;;;;;0.00;0.00;;;;;;;8.74;99.91;100801.44;6159421;23;20018;-77
2024/03/22 02:42:58;;;;;;;0.10;0.10;;;;;;;8.64;100.00;100790.34;6181475;23;20423;-77
2024/03/22 02:45:24;;;;;;;0.00;0.00;;;;;;;8.68;100.00;100794.22;6157892;23;20500;-77
2024/03/22 02:47:49;;;;;;;0.00;0.00;;;;;;;8.62;100.00;100779.66;6133179;23;20009;-76
2024/03/22 02:50:14;;;;;;;0.00;0.00;;;;;;;8.63;100.00;100794.13;6183727;23;20008;-76
2024/03/22 02:52:40;;;;;;;0.10;0.10;;;;;;;8.68;100.00;100788.78;6179470;23;20012;-78
2024/03/22 02:55:05;;;;;;;0.00;0.00;;;;;;;8.74;100.00;100782.34;6183669;23;20226;-78
2024/03/22 02:57:31;;;;;;;0.00;0.00;;;;;;;8.92;100.00;100789.47;6154446;23;20001;-78
2024/03/22 02:59:56;;;;;;;0.00;0.00;;;;;;;9.05;100.00;100788.31;6157287;23;20024;-77
2024/03/22 03:02:22;;;;;;;0.00;0.00;;;;;;;9.18;99.92;100798.91;6207495;23;20012;-77
2024/03/22 03:04:47;;;;;;;0.00;0.00;;;;;;;9.21;98.75;100786.69;6204502;23;20643;-76
2024/03/22 03:07:13;;;;;;;0.00;0.00;;;;;;;9.32;98.27;100790.41;6183779;23;20004;-76
2024/03/22 03:09:38;;;;;;;0.00;0.00;;;;;;;9.34;98.18;100780.06;6154670;23;20099;-76
2024/03/22 03:12:03;;;;;;;0.00;0.00;;;;;;;9.38;97.43;100779.31;6156739;23;20008;-76
2024/03/22 03:14:29;;;;;;;0.00;0.00;;;;;;;9.47;96.97;100784.38;6132029;23;20301;-76
2024/03/22 03:16:55;;;;;;;0.00;0.00;;;;;;;9.43;95.67;100762.19;6158675;23;20005;-77
2024/03/22 03:19:20;;;;;;;0.00;0.00;;;;;;;9.45;95.69;100754.59;6158155;23;20670;-77
2024/03/22 03:21:46;;;;;;;0.00;0.00;;;;;;;9.52;95.30;100759.84;6135630;23;20074;-77
2024/03/22 03:24:11;;;;;;;0.00;0.00;;;;;;;9.52;95.44;100744.31;6157500;23;20008;-77
2024/03/22 03:26:37;;;;;;;0.00;0.00;;;;;;;9.59;95.18;100753.16;6185357;23;20031;-78
2024/03/22 03:29:05;;;;;;;0.00;0.00;;;;;;;9.62;95.44;100749.06;6157544;23;20102;-77
2024/03/22 03:31:31;;;;;;;0.00;0.00;;;;;;;9.64;95.23;100746.09;6211571;23;20004;-77
2024/03/22 03:33:56;;;;;;;0.00;0.00;;;;;;;9.68;95.55;100742.63;6183801;23;20020;-77
2024/03/22 03:36:21;;;;;;;0.00;0.00;;;;;;;9.69;95.82;100746.19;6159516;23;20317;-76
2024/03/22 03:38:47;;;;;;;0.00;0.00;;;;;;;9.61;96.02;100718.22;6160874;23;20450;-77
2024/03/22 03:41:12;;;;;;;0.00;0.00;;;;;;;9.66;96.94;100730.31;6182585;23;20008;-77
2024/03/22 03:43:38;;;;;;;0.00;0.00;;;;;;;9.68;96.75;100731.72;6185639;23;20014;-77
2024/03/22 03:46:03;;;;;;;0.00;0.00;;;;;;;9.66;97.14;100705.72;6183614;23;20008;-77
2024/03/22 03:48:29;;;;;;;0.00;0.00;;;;;;;9.70;97.91;100717.81;6161134;23;20004;-77
2024/03/22 03:50:59;;;;;;;0.00;0.00;;;;;;;9.68;98.55;100711.75;6184614;23;20016;-77
2024/03/22 03:53:24;;;;;;;0.00;0.00;;;;;;;9.64;99.24;100702.41;6183760;23;20020;-76
2024/03/22 03:55:50;;;;;;;0.00;0.00;;;;;;;9.65;100.00;100715.00;6212245;23;20547;-77
2024/03/22 03:58:17;;;;;;;0.00;0.00;;;;;;;9.50;100.00;100700.03;6206590;23;20323;-76
2024/03/22 04:00:46;;;;;;;0.00;0.00;;;;;;;9.33;100.00;100693.81;6161948;23;20005;-75
2024/03/22 04:03:11;;;;;;;0.00;0.00;;;;;;;9.33;100.00;100702.00;6181384;23;20001;-75
2024/03/22 04:05:37;;;;;;;0.00;0.00;;;;;;;9.41;100.00;100715.22;6159914;23;20031;-75
2024/03/22 04:08:02;;;;;;;0.00;0.00;;;;;;;9.46;100.00;100712.53;6158568;23;20423;-77
2024/03/22 04:10:35;;;;;;;0.00;0.00;;;;;;;9.20;100.00;100684.91;6135349;23;20304;-76
2024/03/22 04:13:01;;;;;;;0.00;0.00;;;;;;;9.38;100.00;100707.53;6184923;23;20440;-75
2024/03/22 04:15:26;;;;;;;0.00;0.00;;;;;;;9.45;100.00;100705.44;6181361;23;20013;-76
2024/03/22 04:17:51;;;;;;;0.00;0.00;;;;;;;9.55;100.00;100730.16;6181939;23;20008;-75
2024/03/22 04:20:17;;;;;;;0.00;0.00;;;;;;;9.60;100.00;100727.50;6134048;23;20095;-76
2024/03/22 04:22:42;;;;;;;0.00;0.00;;;;;;;9.60;100.00;100730.22;6207522;23;20009;-75
2024/03/22 04:25:08;;;;;;;0.00;0.00;;;;;;;9.57;100.00;100714.34;6134172;23;20019;-75
2024/03/22 04:27:37;;;;;;;0.00;0.00;;;;;;;9.66;100.00;100716.66;6157827;23;20016;-75
2024/03/22 04:30:03;;;;;;;0.00;0.00;;;;;;;9.64;100.00;100707.88;6184507;23;20012;-76
2024/03/22 04:32:28;;;;;;;0.00;0.00;;;;;;;9.56;100.00;100706.41;6209949;23;20028;-75
2024/03/22 04:34:54;;;;;;;0.00;0.00;;;;;;;9.59;100.00;100706.75;6187212;23;20009;-75
2024/03/22 04:37:20;;;;;;;0.00;0.00;;;;;;;9.59;100.00;100712.19;6178847;23;20013;-76
2024/03/22 04:39:46;;;;;;;0.00;0.00;;;;;;;9.68;100.00;100711.75;6160641;23;20438;-75
2024/03/22 04:42:11;;;;;;;0.00;0.00;;;;;;;9.65;100.00;100704.06;6178917;23;20331;-76
2024/03/22 04:44:37;;;;;;;0.00;0.00;;;;;;;9.61;100.00;100717.41;6181045;23;20008;-76
2024/03/22 04:47:02;;;;;;;0.10;0.10;;;;;;;9.60;100.00;100705.66;6183344;23;20008;-76
2024/03/22 04:49:28;;;;;;;0.00;0.00;;;;;;;9.61;100.00;100718.22;6185085;23;20559;-76
2024/03/22 04:51:53;;;;;;;0.00;0.00;;;;;;;9.43;100.00;100678.41;6183001;23;20159;-75
2024/03/22 04:54:19;;;;;;;0.00;0.00;;;;;;;9.60;100.00;100705.66;6182996;23;20420;-75
2024/03/22 04:56:44;;;;;;;0.00;0.00;;;;;;;9.63;100.00;100695.31;6210895;23;20088;-76
2024/03/22 04:59:09;;;;;;;0.00;0.00;;;;;;;9.43;100.00;100669.38;6158385;23;20020;-77
2024/03/22 05:01:35;;;;;;;0.00;0.00;;;;;;;9.67;100.00;100712.84;6183756;23;20483;-76
2024/03/22 05:04:00;;;;;;;0.00;0.00;;;;;;;9.65;100.00;100693.13;6135924;23;20051;-77
2024/03/22 05:06:26;;;;;;;0.00;0.00;;;;;;;9.64;100.00;100689.59;6133713;23;20693;-75
2024/03/22 05:08:51;;;;;;;0.00;0.00;;;;;;;9.59;100.00;100686.78;6158463;23;20036;-76
2024/03/22 05:11:17;;;;;;;0.00;0.00;;;;;;;9.57;100.00;100672.56;6134291;23;20083;-76
2024/03/22 05:13:42;;;;;;;0.00;0.00;;;;;;;9.69;100.00;100699.75;6134355;23;20009;-76
2024/03/22 05:16:08;;;;;;;0.00;0.00;;;;;;;9.71;100.00;100694.84;6182325;23;20115;-76
2024/03/22 05:18:33;;;;;;;0.00;0.00;;;;;;;9.58;100.00;100674.22;6182335;23;20008;-76
2024/03/22 05:20:59;;;;;;;0.10;0.10;;;;;;;9.65;100.00;100677.59;6184962;23;20015;-76
2024/03/22 05:23:24;;;;;;;0.00;0.00;;;;;;;9.69;100.00;100683.38;6159453;23;20005;-76
2024/03/22 05:25:49;;;;;;;0.00;0.00;;;;;;;9.70;100.00;100685.03;6133004;23;20054;-75
2024/03/22 05:28:15;;;;;;;0.00;0.00;;;;;;;9.63;100.00;100668.00;6133999;23;20091;-74
2024/03/22 05:30:40;;;;;;;0.00;0.00;;;;;;;9.74;100.00;100675.25;6158503;23;20008;-76
2024/03/22 05:33:06;;;;;;;0.00;0.00;;;;;;;9.69;100.00;100677.91;6183223;23;20012;-76
2024/03/22 05:35:31;;;;;;;0.00;0.00;;;;;;;9.70;100.00;100674.94;6158861;23;20012;-75
2024/03/22 05:37:56;;;;;;;0.00;0.00;;;;;;;9.71;100.00;100675.75;6158437;23;20012;-75
2024/03/22 05:40:22;;;;;;;0.00;0.00;;;;;;;9.73;100.00;100677.13;6133440;23;20616;-77
2024/03/22 05:42:48;;;;;;;0.00;0.00;;;;;;;9.75;100.00;100687.81;6134568;23;20005;-76
2024/03/22 05:45:13;;;;;;;0.00;0.00;;;;;;;9.68;100.00;100681.72;6183378;23;20032;-76
2024/03/22 05:47:39;;;;;;;0.00;0.00;;;;;;;9.60;100.00;100663.88;6158713;23;20032;-76
2024/03/22 05:50:06;;;;;;;0.00;0.00;;;;;;;9.68;100.00;100668.06;6134240;23;20104;-76
2024/03/22 05:52:33;;;;;;;0.10;0.10;;;;;;;9.64;100.00;100665.03;6159692;23;20036;-76
2024/03/22 05:54:58;;;;;;;0.00;0.00;;;;;;;9.68;100.00;100659.88;6182404;23;20086;-76
2024/03/22 05:57:24;;;;;;;0.00;0.00;;;;;;;9.70;100.00;100668.66;6184374;23;20004;-77
2024/03/22 05:59:49;;;;;;;0.00;0.00;;;;;;;9.76;100.00;100668.44;6207416;23;20025;-76
2024/03/22 06:02:15;;;;;;;0.00;0.00;;;;;;;9.72;100.00;100661.81;6184151;23;20114;-76
2024/03/22 06:04:41;;;;;;;0.00;0.00;;;;;;;9.69;100.00;100661.53;6133913;23;20012;-76
2024/03/22 06:07:06;;;;;;;0.00;0.00;;;;;;;9.67;100.00;100658.25;6211028;23;20004;-76
2024/03/22 06:09:36;;;;;;;0.00;0.00;;;;;;;9.73;100.00;100663.50;6182329;23;20016;-77
2024/03/22 06:12:04;;;;;;;0.00;0.00;;;;;;;9.76;100.00;100659.44;6159033;23;20008;-76
2024/03/22 06:14:29;;;;;;;0.00;0.00;;;;;;;9.78;100.00;100649.06;6183299;23;20012;-76
2024/03/22 06:16:57;;;;;;;0.00;0.00;;;;;;;9.82;100.00;100644.75;6157174;23;20773;-75
2024/03/22 06:19:23;;;;;;;0.00;0.00;;;;;;;9.85;100.00;100644.22;6181118;23;20446;-74
2024/03/22 06:21:48;;;;;;;0.00;0.00;;;;;;;9.89;100.00;100639.09;6208843;23;20059;-74
2024/03/22 06:24:14;;;;;;;0.00;0.00;;;;;;;9.91;100.00;100637.75;6158784;23;20334;-76
2024/03/22 06:26:39;;;;;;;0.00;0.00;;;;;;;9.99;100.00;100649.28;6158154;23;20024;-75
2024/03/22 06:29:05;;;;;;;0.00;0.00;;;;;;;10.01;100.00;100641.69;6158315;23;20008;-76
2024/03/22 06:31:31;;;;;;;0.00;0.00;;;;;;;10.04;100.00;100635.69;6183859;23;20083;-75
2024/03/22 06:34:01;;;;;;;0.00;0.00;;;;;;;10.13;100.00;100656.00;6208076;23;20011;-75
2024/03/22 06:36:31;;;;;;;0.10;0.10;;;;;;;10.11;100.00;100647.25;6160407;23;20363;-74
2024/03/22 06:38:56;;;;;;;0.00;0.00;;;;;;;10.19;100.00;100652.25;6181365;23;20001;-75
2024/03/22 06:41:22;;;;;;;0.00;0.00;;;;;;;10.20;100.00;100637.50;6181750;23;20013;-75
2024/03/22 06:43:47;;;;;;;0.00;0.00;;;;;;;10.25;100.00;100637.56;6207940;23;20044;-76
2024/03/22 06:46:13;;;;;;;0.00;0.00;;;;;;;10.25;100.00;100618.44;6134219;23;20323;-74
2024/03/22 06:48:38;;;;;;;0.00;0.00;;;;;;;10.39;100.00;100643.44;6181827;23;20017;-78
2024/03/22 06:51:04;;;;;;;0.00;0.00;;;;;;;10.44;100.00;100643.50;6132161;23;20034;-77
2024/03/22 06:53:29;;;;;;;0.00;0.00;;;;;;;10.52;100.00;100646.84;6159177;23;20020;-77
2024/03/22 06:55:55;;;;;;;0.00;0.00;;;;;;;10.58;100.00;100646.63;6132884;23;20099;-76
2024/03/22 06:58:21;;;;;;;0.00;0.00;;;;;;;10.61;100.00;100643.34;6180267;22;20644;-75
2024/03/22 07:00:48;;;;;;;0.00;0.00;;;;;;;10.67;100.00;100641.50;6156969;23;20067;-74
2024/03/22 07:03:14;;;;;;;0.00;0.00;;;;;;;10.71;100.00;100634.41;6156447;23;20043;-74
2024/03/22 07:05:39;;;;;;;0.00;0.00;;;;;;;10.77;100.00;100632.56;6184310;23;20028;-74
2024/03/22 07:08:05;;;;;;;0.00;0.00;;;;;;;10.82;100.00;100643.53;6161374;23;20004;-74
2024/03/22 07:10:39;;;;;;;0.00;0.00;;;;;;;10.79;100.00;100633.09;6159154;23;20493;-74
2024/03/22 07:13:05;;;;;;;0.00;0.00;;;;;;;10.83;100.00;100642.44;6183285;23;20012;-73
2024/03/22 07:15:32;;;;;;;0.00;0.00;;;;;;;10.81;100.00;100634.50;6161419;23;20013;-73
2024/03/22 07:17:57;;;;;;;0.00;0.00;;;;;;;10.86;100.00;100641.09;6180639;23;20104;-75
2024/03/22 07:20:23;;;;;;;0.00;0.00;;;;;;;10.87;100.00;100632.63;6184654;23;20447;-74
2024/03/22 07:22:48;;;;;;;0.00;0.00;;;;;;;10.87;100.00;100638.09;6156972;23;20016;-78
2024/03/22 07:25:14;;;;;;;0.00;0.00;;;;;;;10.91;100.00;100628.28;6157109;23;20087;-74
2024/03/22 07:27:39;;;;;;;0.00;0.00;;;;;;;10.93;100.00;100633.47;6135566;23;20000;-74
2024/03/22 07:30:05;;;;;;;0.00;0.00;;;;;;;10.96;100.00;100639.25;6183358;23;20008;-76
2024/03/22 07:32:31;;;;;;;0.00;0.00;;;;;;;10.90;100.00;100621.16;6210188;23;20011;-75
2024/03/22 07:34:57;;;;;;;0.00;0.00;;;;;;;11.08;100.00;100633.59;6179899;23;20062;-74
2024/03/22 07:37:23;;;;;;;0.00;0.00;;;;;;;11.10;100.00;100636.06;6210876;23;20004;-75
2024/03/22 07:39:49;;;;;;;0.00;0.00;;;;;;;11.15;100.00;100644.28;6132542;23;20020;-77
2024/03/22 07:42:14;;;;;;;0.00;0.00;;;;;;;11.16;100.00;100643.22;6184923;23;20035;-75
2024/03/22 07:44:42;;;;;;;0.00;0.00;;;;;;;11.16;100.00;100644.03;6182666;23;20005;-75
2024/03/22 07:47:10;;;;;;;0.00;0.00;;;;;;;11.07;100.00;100622.88;6133118;23;20008;-78
2024/03/22 07:49:36;;;;;;;0.00;0.00;;;;;;;11.18;100.00;100643.75;6182164;23;20016;-77
2024/03/22 07:52:05;;;;;;;0.00;0.00;;;;;;;11.25;100.00;100660.78;6156022;23;20084;-76
2024/03/22 07:54:30;;;;;;;0.00;0.00;;;;;;;11.23;100.00;100652.03;6158277;23;20005;-76
2024/03/22 07:56:55;;;;;;;0.00;0.00;;;;;;;11.32;100.00;100650.41;6182384;23;20420;-73
2024/03/22 07:59:21;;;;;;;0.00;0.00;;;;;;;11.31;100.00;100637.81;6155567;23;20080;-72
2024/03/22 08:01:46;;;;;;;0.00;0.00;;;;;;;11.49;100.00;100643.91;6159524;23;20104;-77
2024/03/22 08:04:21;;;;;;;0.00;0.00;;;;;;;11.44;100.00;100627.47;6158274;23;20008;-77
2024/03/22 08:06:54;;;;;;;0.00;0.00;;;;;;;11.50;100.00;100635.44;6209167;23;20015;-76
2024/03/22 08:09:23;;;;;;;0.00;0.00;;;;;;;11.49;100.00;100635.72;6209614;23;20000;-77
2024/03/22 08:11:48;;;;;;;0.00;0.00;;;;;;;11.61;100.00;100652.75;6210516;23;20004;-76
2024/03/22 08:14:14;;;;;;;0.00;0.00;;;;;;;11.63;100.00;100660.69;6158855;23;20009;-75
2024/03/22 08:16:39;;;;;;;0.00;0.00;;;;;;;11.62;100.00;100659.88;6158551;23;20013;-74
2024/03/22 08:19:04;;;;;;;0.10;0.10;;;;;;;11.56;100.00;100655.47;6158737;23;20016;-73
2024/03/22 08:21:30;;;;;;;0.00;0.00;;;;;;;11.61;100.00;100651.91;6158190;23;20005;-73
2024/03/22 08:23:55;;;;;;;0.00;0.00;;;;;;;11.60;100.00;100645.63;6185159;23;20011;-74
2024/03/22 08:26:21;;;;;;;0.00;0.00;;;;;;;11.59;100.00;100643.16;6134242;23;20039;-74
2024/03/22 08:28:47;;;;;;;0.00;0.00;;;;;;;11.59;100.00;100654.91;6158229;23;20040;-74
2024/03/22 08:31:13;;;;;;;0.00;0.00;;;;;;;11.65;100.00;100659.34;6183734;23;20087;-75
2024/03/22 08:33:38;;;;;;;0.00;0.00;;;;;;;11.73;100.00;100659.94;6183699;23;20012;-74
2024/03/22 08:36:04;;;;;;;0.00;0.00;;;;;;;11.80;100.00;100653.09;6160199;23;20008;-74
2024/03/22 08:38:29;;;;;;;0.00;0.00;;;;;;;11.83;100.00;100651.75;6181957;23;20014;-75
2024/03/22 08:40:55;;;;;;;0.00;0.00;;;;;;;11.91;100.00;100651.22;6185670;23;20004;-74
2024/03/22 08:43:22;;;;;;;0.00;0.00;;;;;;;11.92;100.00;100647.38;6180626;23;20035;-75
2024/03/22 08:45:57;;;;;;;0.00;0.00;;;;;;;11.94;100.00;100634.25;6156025;23;20009;-75
2024/03/22 08:48:23;;;;;;;0.00;0.00;;;;;;;12.03;100.00;100643.63;6208155;23;19996;-76
2024/03/22 08:50:48;;;;;;;0.00;0.00;;;;;;;11.92;100.00;100641.91;6209911;23;20011;-74
2024/03/22 08:53:14;;;;;;;0.00;0.00;;;;;;;11.97;100.00;100650.19;6178692;23;20004;-75
2024/03/22 08:55:49;;;;;;;0.00;0.00;;;;;;;11.84;100.00;100646.00;6183712;23;20435;-75
2024/03/22 08:58:17;;;;;;;0.00;0.00;;;;;;;11.69;100.00;100630.31;6183761;23;20004;-74
2024/03/22 09:00:42;;;;;;;0.00;0.00;;;;;;;11.74;100.00;100650.59;6168345;23;20067;-75
2024/03/22 09:03:08;;;;;;;0.00;0.00;;;;;;;11.76;100.00;100648.44;6162565;23;20008;-75
2024/03/22 09:05:33;;;;;;;0.00;0.00;;;;;;;11.63;100.00;100631.38;6158363;23;20008;-74
2024/03/22 09:08:03;;;;;;;0.00;0.00;;;;;;;11.79;100.00;100654.19;6130167;23;20470;-75
2024/03/22 09:10:29;;;;;;;0.00;0.00;;;;;;;11.94;100.00;100650.69;6182996;23;20004;-75
2024/03/22 09:12:55;;;;;;;0.00;0.00;;;;;;;12.10;100.00;100637.03;6207621;23;20011;-74
2024/03/22 09:15:21;;;;;;;0.00;0.00;;;;;;;12.30;100.00;100634.34;6206556;23;20086;-74
2024/03/22 09:17:47;;;;;;;0.00;0.00;;;;;;;12.31;100.00;100646.94;6208836;23;20016;-73
2024/03/22 09:20:14;;;;;;;0.00;0.00;;;;;;;12.12;100.00;100640.31;6143054;23;20013;-73
2024/03/22 09:22:40;;;;;;;0.00;0.00;;;;;;;11.86;100.00;100642.97;6162271;23;20011;-75
2024/03/22 09:25:06;;;;;;;0.00;0.00;;;;;;;11.87;100.00;100641.88;6183251;23;20009;-75
2024/03/22 09:27:32;;;;;;;0.00;0.00;;;;;;;11.93;100.00;100631.75;6159490;23;20058;-74
2024/03/22 09:29:58;;;;;;;0.00;0.00;;;;;;;11.98;100.00;100632.63;6158728;23;20016;-73
2024/03/22 09:32:23;;;;;;;0.00;0.00;;;;;;;11.97;100.00;100620.03;6177233;23;20752;-73
2024/03/22 09:34:53;;;;;;;0.00;0.00;;;;;;;11.96;100.00;100612.06;6184373;23;20006;-74
2024/03/22 09:37:19;;;;;;;0.00;0.00;;;;;;;12.41;99.75;100626.94;6179335;23;20005;-74
2024/03/22 09:39:46;;;;;;;0.00;0.00;;;;;;;12.97;94.57;100633.50;6210905;23;20062;-74
2024/03/22 09:42:18;;;;;;;0.00;0.00;;;;;;;13.49;92.47;100634.22;6155245;23;20011;-74
2024/03/22 09:44:48;;;;;;;0.00;0.00;;;;;;;14.18;87.35;100650.91;6208288;23;20005;-74
2024/03/22 09:47:18;;;;;;;0.10;0.10;;;;;;;14.31;82.36;100633.78;6180118;23;20032;-74
2024/03/22 09:49:48;;;;;;;0.00;0.00;;;;;;;14.73;80.93;100646.13;6206305;23;20000;-74
2024/03/22 09:52:14;;;;;;;0.00;0.00;;;;;;;14.79;76.73;100645.00;6159615;23;20011;-74
2024/03/22 09:54:44;;;;;;;0.00;0.00;;;;;;;14.72;76.75;100633.50;6152980;23;20009;-74
2024/03/22 09:57:20;;;;;;;0.00;0.00;;;;;;;14.94;76.27;100632.19;6157249;23;20446;-75
2024/03/22 09:59:45;;;;;;;0.00;0.00;;;;;;;15.13;73.72;100638.59;6154383;23;20028;-72
2024/03/22 10:02:12;;;;;;;0.00;0.00;;;;;;;14.95;72.74;100634.66;6157767;23;20411;-73
2024/03/22 10:04:39;;;;;;;0.00;0.00;;;;;;;14.86;73.60;100654.84;6153923;23;20968;-73
2024/03/22 10:07:04;;;;;;;0.00;0.00;;;;;;;14.63;73.81;100662.72;6208043;23;20011;-72
2024/03/22 10:09:30;;;;;;;0.00;0.00;;;;;;;14.39;74.31;100668.13;6177200;23;20030;-72
2024/03/22 10:11:56;;;;;;;0.00;0.00;;;;;;;13.96;74.49;100679.66;6156843;23;20009;-74
2024/03/22 10:14:25;;;;;;;0.00;0.00;;;;;;;13.45;76.30;100658.69;6208973;23;19999;-74
2024/03/22 10:16:53;;;;;;;0.00;0.00;;;;;;;13.23;78.28;100667.22;6203205;23;20008;-73
2024/03/22 10:19:22;;;;;;;0.00;0.00;;;;;;;12.97;80.23;100659.03;6179702;23;20320;-73
2024/03/22 10:21:59;;;;;;;0.00;0.00;;;;;;;12.85;82.72;100674.94;6202606;23;20331;-74
2024/03/22 10:24:32;;;;;;;0.00;0.00;;;;;;;12.63;83.89;100656.00;6181876;23;20005;-74
2024/03/22 10:26:57;;;;;;;0.00;0.00;;;;;;;12.65;85.12;100662.88;6177218;23;20791;-75
2024/03/22 10:29:26;;;;;;;0.00;0.00;;;;;;;12.79;85.39;100663.16;6208682;23;20080;-75
2024/03/22 10:31:52;;;;;;;0.00;0.00;;;;;;;12.89;84.57;100673.28;6205074;23;20004;-75
2024/03/22 10:34:20;;;;;;;0.00;0.00;;;;;;;12.93;84.18;100669.72;6159256;23;20013;-75
2024/03/22 10:36:47;;;;;;;0.00;0.00;;;;;;;13.00;84.60;100663.16;6205791;23;20003;-74
2024/03/22 10:39:18;;;;;;;0.00;0.00;;;;;;;13.23;84.25;100667.22;6181892;23;20015;-74
2024/03/22 10:41:48;;;;;;;0.00;0.00;;;;;;;13.49;83.89;100667.19;6158642;23;20012;-73
2024/03/22 10:44:14;;;;;;;0.00;0.00;;;;;;;13.54;80.91;100675.41;6131099;23;20043;-73
2024/03/22 10:46:57;;;;;;;0.00;0.00;;;;;;;13.54;76.53;100672.66;6182598;23;20099;-75
2024/03/22 10:49:26;;;;;;;0.00;0.00;;;;;;;13.41;75.15;100652.09;6206944;23;20450;-74
2024/03/22 10:51:59;;;;;;;0.00;0.00;;;;;;;13.51;75.75;100646.56;6157509;23;20009;-74
2024/03/22 10:54:32;;;;;;;0.00;0.00;;;;;;;13.77;76.20;100652.78;6179402;23;20079;-73
2024/03/22 10:57:26;;;;;;;0.00;0.00;;;;;;;13.92;76.40;100648.31;6183804;23;20073;-74
2024/03/22 10:59:54;;;;;;;;;;;;;;;14.06;76.21;100682.34;6180795;23;20017;-75
2024/03/22 11:02:27;;;;;;;0.00;0.00;;;;;;;13.58;73.03;100649.84;6148922;23;19904;-74
2024/03/22 11:04:59;;;;;;;0.00;0.00;;;;;;;13.55;74.39;100677.03;6150698;23;20005;-75
2024/03/22 11:07:36;;;;;;;0.00;0.00;;;;;;;13.47;75.63;100674.88;6152525;23;20009;-73
2024/03/22 11:10:12;;;;;;;0.00;0.00;;;;;;;13.07;76.61;100639.78;6151955;23;20490;-72
2024/03/22 11:12:51;;;;;;;;;;;;;;;;;;;;;
2024/03/22 11:15:18;;;;;;;0.00;0.00;;;;;;;13.54;78.73;100687.22;6175939;23;20083;-75
2024/03/22 11:17:49;;;;;;;0.00;0.00;;;;;;;13.39;78.06;100652.38;6178769;23;20001;-75
2024/03/22 11:20:18;;;;;;;0.00;0.00;;;;;;;13.63;78.29;100701.22;6177239;23;20319;-73
2024/03/22 11:22:43;;;;;;;0.00;0.00;;;;;;;13.33;77.24;100669.94;6127073;23;20013;-74